sensor_id;sensor_type;location;lat;lon;timestamp;P1;durP1;ratioP1;P2;durP2;ratioP2
15254;SDS011;7730;49.610;11.136;2022-12-29T00:00:09;4.05;;;1.85;;
15254;SDS011;7730;49.610;11.136;2022-12-29T00:02:36;4.07;;;1.90;;
15254;SDS011;7730;49.610;11.136;2022-12-29T00:05:05;2.97;;;1.90;;
15254;SDS011;7730;49.610;11.136;2022-12-29T00:07:32;4.28;;;1.95;;
15254;SDS011;7730;49.610;11.136;2022-12-29T00:09:59;4.05;;;2.00;;
15254;SDS011;7730;49.610;11.136;2022-12-29T00:12:26;2.85;;;1.85;;
15254;SDS011;7730;49.610;11.136;2022-12-29T00:15:14;3.97;;;1.75;;
15254;SDS011;7730;49.610;11.136;2022-12-29T00:17:59;2.65;;;1.67;;
15254;SDS011;7730;49.610;11.136;2022-12-29T00:20:27;3.07;;;1.77;;
15254;SDS011;7730;49.610;11.136;2022-12-29T00:23:11;4.43;;;1.80;;
15254;SDS011;7730;49.610;11.136;2022-12-29T00:25:56;4.75;;;1.83;;
15254;SDS011;7730;49.610;11.136;2022-12-29T00:28:40;2.93;;;1.73;;
15254;SDS011;7730;49.610;11.136;2022-12-29T00:31:25;2.87;;;1.70;;
15254;SDS011;7730;49.610;11.136;2022-12-29T00:34:10;6.22;;;2.33;;
15254;SDS011;7730;49.610;11.136;2022-12-29T00:36:56;4.07;;;2.00;;
15254;SDS011;7730;49.610;11.136;2022-12-29T00:39:23;3.22;;;1.70;;
15254;SDS011;7730;49.610;11.136;2022-12-29T00:42:09;3.83;;;1.90;;
15254;SDS011;7730;49.610;11.136;2022-12-29T00:44:53;3.47;;;1.73;;
15254;SDS011;7730;49.610;11.136;2022-12-29T00:47:20;2.75;;;1.80;;
15254;SDS011;7730;49.610;11.136;2022-12-29T00:49:47;3.80;;;1.83;;
15254;SDS011;7730;49.610;11.136;2022-12-29T00:52:14;3.40;;;1.92;;
15254;SDS011;7730;49.610;11.136;2022-12-29T00:54:41;4.05;;;1.90;;
15254;SDS011;7730;49.610;11.136;2022-12-29T00:57:10;2.37;;;1.70;;
15254;SDS011;7730;49.610;11.136;2022-12-29T00:59:38;3.60;;;1.88;;
15254;SDS011;7730;49.610;11.136;2022-12-29T01:02:06;4.63;;;2.07;;
15254;SDS011;7730;49.610;11.136;2022-12-29T01:04:33;3.97;;;1.70;;
15254;SDS011;7730;49.610;11.136;2022-12-29T01:07:00;2.35;;;1.73;;
15254;SDS011;7730;49.610;11.136;2022-12-29T01:09:28;2.85;;;1.73;;
15254;SDS011;7730;49.610;11.136;2022-12-29T01:12:13;3.80;;;1.80;;
15254;SDS011;7730;49.610;11.136;2022-12-29T01:14:40;3.65;;;1.98;;
15254;SDS011;7730;49.610;11.136;2022-12-29T01:17:07;3.28;;;1.80;;
15254;SDS011;7730;49.610;11.136;2022-12-29T01:19:34;4.13;;;1.80;;
15254;SDS011;7730;49.610;11.136;2022-12-29T01:22:01;3.90;;;1.73;;
15254;SDS011;7730;49.610;11.136;2022-12-29T01:24:29;4.32;;;1.80;;
15254;SDS011;7730;49.610;11.136;2022-12-29T01:26:56;3.40;;;1.80;;
15254;SDS011;7730;49.610;11.136;2022-12-29T01:29:23;3.00;;;1.80;;
15254;SDS011;7730;49.610;11.136;2022-12-29T01:31:50;3.77;;;1.80;;
15254;SDS011;7730;49.610;11.136;2022-12-29T01:34:17;4.32;;;1.80;;
15254;SDS011;7730;49.610;11.136;2022-12-29T01:36:44;4.10;;;1.80;;
15254;SDS011;7730;49.610;11.136;2022-12-29T01:39:11;3.53;;;1.80;;
15254;SDS011;7730;49.610;11.136;2022-12-29T01:41:41;3.22;;;1.80;;
15254;SDS011;7730;49.610;11.136;2022-12-29T01:46:53;3.40;;;1.60;;
15254;SDS011;7730;49.610;11.136;2022-12-29T01:49:21;2.60;;;1.70;;
15254;SDS011;7730;49.610;11.136;2022-12-29T01:51:50;3.63;;;1.75;;
15254;SDS011;7730;49.610;11.136;2022-12-29T01:54:18;5.43;;;1.90;;
15254;SDS011;7730;49.610;11.136;2022-12-29T01:56:47;4.17;;;1.70;;
15254;SDS011;7730;49.610;11.136;2022-12-29T01:59:15;2.45;;;1.52;;
15254;SDS011;7730;49.610;11.136;2022-12-29T02:01:43;3.67;;;1.90;;
15254;SDS011;7730;49.610;11.136;2022-12-29T02:04:11;4.95;;;1.70;;
15254;SDS011;7730;49.610;11.136;2022-12-29T02:06:40;3.35;;;1.70;;
15254;SDS011;7730;49.610;11.136;2022-12-29T02:09:08;3.80;;;1.90;;
15254;SDS011;7730;49.610;11.136;2022-12-29T02:11:35;3.77;;;1.87;;
15254;SDS011;7730;49.610;11.136;2022-12-29T02:14:07;3.10;;;1.60;;
15254;SDS011;7730;49.610;11.136;2022-12-29T02:16:38;3.65;;;1.85;;
15254;SDS011;7730;49.610;11.136;2022-12-29T02:19:15;4.97;;;2.10;;
15254;SDS011;7730;49.610;11.136;2022-12-29T02:21:48;3.40;;;1.75;;
15254;SDS011;7730;49.610;11.136;2022-12-29T02:27:26;4.20;;;1.80;;
15254;SDS011;7730;49.610;11.136;2022-12-29T02:32:44;2.67;;;1.75;;
15254;SDS011;7730;49.610;11.136;2022-12-29T02:35:14;2.78;;;1.67;;
15254;SDS011;7730;49.610;11.136;2022-12-29T02:37:44;3.43;;;1.93;;
15254;SDS011;7730;49.610;11.136;2022-12-29T02:40:17;3.35;;;1.90;;
15254;SDS011;7730;49.610;11.136;2022-12-29T02:42:50;5.18;;;1.98;;
15254;SDS011;7730;49.610;11.136;2022-12-29T02:45:19;2.72;;;1.60;;
15254;SDS011;7730;49.610;11.136;2022-12-29T02:47:49;3.47;;;1.80;;
15254;SDS011;7730;49.610;11.136;2022-12-29T02:50:19;3.95;;;1.80;;
15254;SDS011;7730;49.610;11.136;2022-12-29T02:52:48;2.75;;;1.88;;
15254;SDS011;7730;49.610;11.136;2022-12-29T02:55:16;3.40;;;1.77;;
15254;SDS011;7730;49.610;11.136;2022-12-29T02:57:43;7.10;;;2.38;;
15254;SDS011;7730;49.610;11.136;2022-12-29T03:00:10;3.57;;;1.83;;
15254;SDS011;7730;49.610;11.136;2022-12-29T03:02:46;4.28;;;2.05;;
15254;SDS011;7730;49.610;11.136;2022-12-29T03:05:21;4.10;;;1.95;;
15254;SDS011;7730;49.610;11.136;2022-12-29T03:07:51;3.50;;;1.80;;
15254;SDS011;7730;49.610;11.136;2022-12-29T03:10:25;2.78;;;1.83;;
15254;SDS011;7730;49.610;11.136;2022-12-29T03:12:56;3.30;;;2.00;;
15254;SDS011;7730;49.610;11.136;2022-12-29T03:15:46;4.07;;;1.90;;
15254;SDS011;7730;49.610;11.136;2022-12-29T03:18:28;2.07;;;1.53;;
15254;SDS011;7730;49.610;11.136;2022-12-29T03:21:02;2.33;;;1.60;;
15254;SDS011;7730;49.610;11.136;2022-12-29T03:23:29;5.60;;;1.73;;
15254;SDS011;7730;49.610;11.136;2022-12-29T03:25:59;4.07;;;1.90;;
15254;SDS011;7730;49.610;11.136;2022-12-29T03:28:29;4.93;;;1.77;;
15254;SDS011;7730;49.610;11.136;2022-12-29T03:30:57;5.28;;;1.73;;
15254;SDS011;7730;49.610;11.136;2022-12-29T03:33:26;3.97;;;1.73;;
15254;SDS011;7730;49.610;11.136;2022-12-29T03:35:55;5.30;;;1.92;;
15254;SDS011;7730;49.610;11.136;2022-12-29T03:38:27;3.37;;;1.83;;
15254;SDS011;7730;49.610;11.136;2022-12-29T03:40:58;5.23;;;1.73;;
15254;SDS011;7730;49.610;11.136;2022-12-29T03:43:25;4.15;;;1.80;;
15254;SDS011;7730;49.610;11.136;2022-12-29T03:45:53;4.25;;;1.85;;
15254;SDS011;7730;49.610;11.136;2022-12-29T03:48:20;4.80;;;2.00;;
15254;SDS011;7730;49.610;11.136;2022-12-29T03:50:48;4.95;;;1.85;;
15254;SDS011;7730;49.610;11.136;2022-12-29T03:53:15;4.90;;;1.98;;
15254;SDS011;7730;49.610;11.136;2022-12-29T03:55:44;3.93;;;1.80;;
15254;SDS011;7730;49.610;11.136;2022-12-29T03:58:11;3.87;;;2.03;;
15254;SDS011;7730;49.610;11.136;2022-12-29T04:00:38;4.33;;;1.83;;
15254;SDS011;7730;49.610;11.136;2022-12-29T04:03:05;3.67;;;1.88;;
15254;SDS011;7730;49.610;11.136;2022-12-29T04:05:32;3.80;;;1.98;;
15254;SDS011;7730;49.610;11.136;2022-12-29T04:07:59;5.10;;;1.97;;
15254;SDS011;7730;49.610;11.136;2022-12-29T04:10:26;5.45;;;1.90;;
15254;SDS011;7730;49.610;11.136;2022-12-29T04:12:54;2.97;;;1.67;;
15254;SDS011;7730;49.610;11.136;2022-12-29T04:15:21;2.97;;;1.67;;
15254;SDS011;7730;49.610;11.136;2022-12-29T04:17:49;3.70;;;1.95;;
15254;SDS011;7730;49.610;11.136;2022-12-29T04:20:16;4.13;;;1.90;;
15254;SDS011;7730;49.610;11.136;2022-12-29T04:23:00;3.77;;;1.90;;
15254;SDS011;7730;49.610;11.136;2022-12-29T04:25:28;7.23;;;2.10;;
15254;SDS011;7730;49.610;11.136;2022-12-29T04:27:56;2.63;;;1.70;;
15254;SDS011;7730;49.610;11.136;2022-12-29T04:30:23;3.42;;;1.70;;
15254;SDS011;7730;49.610;11.136;2022-12-29T04:32:50;4.97;;;2.05;;
15254;SDS011;7730;49.610;11.136;2022-12-29T04:35:17;4.50;;;1.92;;
15254;SDS011;7730;49.610;11.136;2022-12-29T04:37:44;5.85;;;2.08;;
15254;SDS011;7730;49.610;11.136;2022-12-29T04:40:11;3.38;;;1.80;;
15254;SDS011;7730;49.610;11.136;2022-12-29T04:42:38;5.88;;;1.90;;
15254;SDS011;7730;49.610;11.136;2022-12-29T04:45:07;5.60;;;1.80;;
15254;SDS011;7730;49.610;11.136;2022-12-29T04:47:34;4.28;;;1.80;;
15254;SDS011;7730;49.610;11.136;2022-12-29T04:50:02;5.43;;;1.90;;
15254;SDS011;7730;49.610;11.136;2022-12-29T04:52:29;5.80;;;1.95;;
15254;SDS011;7730;49.610;11.136;2022-12-29T04:54:56;4.70;;;2.07;;
15254;SDS011;7730;49.610;11.136;2022-12-29T04:57:23;3.53;;;1.80;;
15254;SDS011;7730;49.610;11.136;2022-12-29T04:59:50;3.67;;;1.83;;
15254;SDS011;7730;49.610;11.136;2022-12-29T05:02:18;5.90;;;2.00;;
15254;SDS011;7730;49.610;11.136;2022-12-29T05:04:45;4.53;;;1.80;;
15254;SDS011;7730;49.610;11.136;2022-12-29T05:07:12;5.72;;;1.90;;
15254;SDS011;7730;49.610;11.136;2022-12-29T05:09:39;4.70;;;2.20;;
15254;SDS011;7730;49.610;11.136;2022-12-29T05:12:06;3.45;;;1.60;;
15254;SDS011;7730;49.610;11.136;2022-12-29T05:14:33;5.10;;;1.90;;
15254;SDS011;7730;49.610;11.136;2022-12-29T05:17:00;3.37;;;1.80;;
15254;SDS011;7730;49.610;11.136;2022-12-29T05:19:29;4.60;;;1.90;;
15254;SDS011;7730;49.610;11.136;2022-12-29T05:21:56;3.17;;;1.73;;
15254;SDS011;7730;49.610;11.136;2022-12-29T05:24:23;3.85;;;1.90;;
15254;SDS011;7730;49.610;11.136;2022-12-29T05:26:50;3.58;;;1.70;;
15254;SDS011;7730;49.610;11.136;2022-12-29T05:29:17;3.88;;;1.80;;
15254;SDS011;7730;49.610;11.136;2022-12-29T05:31:44;5.05;;;2.33;;
15254;SDS011;7730;49.610;11.136;2022-12-29T05:34:11;3.20;;;1.70;;
15254;SDS011;7730;49.610;11.136;2022-12-29T05:36:39;3.20;;;1.77;;
15254;SDS011;7730;49.610;11.136;2022-12-29T05:39:06;4.35;;;2.00;;
15254;SDS011;7730;49.610;11.136;2022-12-29T05:41:34;3.70;;;1.88;;
15254;SDS011;7730;49.610;11.136;2022-12-29T05:44:01;2.38;;;1.52;;
15254;SDS011;7730;49.610;11.136;2022-12-29T05:46:28;4.07;;;1.88;;
15254;SDS011;7730;49.610;11.136;2022-12-29T05:48:55;4.22;;;1.88;;
15254;SDS011;7730;49.610;11.136;2022-12-29T05:51:22;3.80;;;2.00;;
15254;SDS011;7730;49.610;11.136;2022-12-29T05:53:50;5.47;;;2.03;;
15254;SDS011;7730;49.610;11.136;2022-12-29T05:56:17;3.23;;;1.80;;
15254;SDS011;7730;49.610;11.136;2022-12-29T05:58:44;3.47;;;1.80;;
15254;SDS011;7730;49.610;11.136;2022-12-29T06:01:11;3.73;;;1.83;;
15254;SDS011;7730;49.610;11.136;2022-12-29T06:03:38;3.33;;;1.67;;
15254;SDS011;7730;49.610;11.136;2022-12-29T06:06:05;2.42;;;1.80;;
15254;SDS011;7730;49.610;11.136;2022-12-29T06:08:33;5.53;;;1.83;;
15254;SDS011;7730;49.610;11.136;2022-12-29T06:11:01;4.15;;;1.80;;
15254;SDS011;7730;49.610;11.136;2022-12-29T06:13:28;4.45;;;1.92;;
15254;SDS011;7730;49.610;11.136;2022-12-29T06:15:55;3.75;;;1.90;;
15254;SDS011;7730;49.610;11.136;2022-12-29T06:18:22;4.13;;;1.60;;
15254;SDS011;7730;49.610;11.136;2022-12-29T06:20:49;4.88;;;1.80;;
15254;SDS011;7730;49.610;11.136;2022-12-29T06:23:16;3.20;;;1.83;;
15254;SDS011;7730;49.610;11.136;2022-12-29T06:25:44;4.65;;;1.70;;
15254;SDS011;7730;49.610;11.136;2022-12-29T06:28:12;3.88;;;2.00;;
15254;SDS011;7730;49.610;11.136;2022-12-29T06:30:39;3.70;;;1.80;;
15254;SDS011;7730;49.610;11.136;2022-12-29T06:33:06;4.38;;;1.90;;
15254;SDS011;7730;49.610;11.136;2022-12-29T06:35:33;4.50;;;1.73;;
15254;SDS011;7730;49.610;11.136;2022-12-29T06:38:00;3.38;;;1.73;;
15254;SDS011;7730;49.610;11.136;2022-12-29T06:40:27;4.55;;;1.60;;
15254;SDS011;7730;49.610;11.136;2022-12-29T06:42:54;3.40;;;1.70;;
15254;SDS011;7730;49.610;11.136;2022-12-29T06:45:23;3.60;;;1.85;;
15254;SDS011;7730;49.610;11.136;2022-12-29T06:47:50;5.43;;;1.80;;
15254;SDS011;7730;49.610;11.136;2022-12-29T06:50:17;3.38;;;1.60;;
15254;SDS011;7730;49.610;11.136;2022-12-29T06:52:44;3.35;;;1.45;;
15254;SDS011;7730;49.610;11.136;2022-12-29T06:55:11;2.87;;;1.67;;
15254;SDS011;7730;49.610;11.136;2022-12-29T06:57:38;3.72;;;1.73;;
15254;SDS011;7730;49.610;11.136;2022-12-29T07:00:05;3.85;;;1.70;;
15254;SDS011;7730;49.610;11.136;2022-12-29T07:02:34;3.27;;;1.73;;
15254;SDS011;7730;49.610;11.136;2022-12-29T07:05:01;3.92;;;1.80;;
15254;SDS011;7730;49.610;11.136;2022-12-29T07:07:28;4.40;;;1.52;;
15254;SDS011;7730;49.610;11.136;2022-12-29T07:09:55;5.45;;;1.67;;
15254;SDS011;7730;49.610;11.136;2022-12-29T07:12:22;3.55;;;1.58;;
15254;SDS011;7730;49.610;11.136;2022-12-29T07:14:49;3.97;;;1.70;;
15254;SDS011;7730;49.610;11.136;2022-12-29T07:17:16;2.90;;;1.60;;
15254;SDS011;7730;49.610;11.136;2022-12-29T07:19:44;3.42;;;1.75;;
15254;SDS011;7730;49.610;11.136;2022-12-29T07:22:11;5.22;;;1.92;;
15254;SDS011;7730;49.610;11.136;2022-12-29T07:24:38;4.45;;;1.70;;
15254;SDS011;7730;49.610;11.136;2022-12-29T07:27:05;2.72;;;1.85;;
15254;SDS011;7730;49.610;11.136;2022-12-29T07:29:32;6.90;;;2.05;;
15254;SDS011;7730;49.610;11.136;2022-12-29T07:31:59;2.85;;;1.75;;
15254;SDS011;7730;49.610;11.136;2022-12-29T07:34:26;3.53;;;1.70;;
15254;SDS011;7730;49.610;11.136;2022-12-29T07:36:54;3.72;;;1.73;;
15254;SDS011;7730;49.610;11.136;2022-12-29T07:39:21;2.67;;;1.60;;
15254;SDS011;7730;49.610;11.136;2022-12-29T07:41:48;4.83;;;1.90;;
15254;SDS011;7730;49.610;11.136;2022-12-29T07:44:15;2.80;;;1.70;;
15254;SDS011;7730;49.610;11.136;2022-12-29T07:46:42;3.08;;;1.85;;
15254;SDS011;7730;49.610;11.136;2022-12-29T07:49:09;3.10;;;1.60;;
15254;SDS011;7730;49.610;11.136;2022-12-29T07:51:36;3.60;;;1.77;;
15254;SDS011;7730;49.610;11.136;2022-12-29T07:54:05;2.95;;;1.77;;
15254;SDS011;7730;49.610;11.136;2022-12-29T07:56:32;5.63;;;1.70;;
15254;SDS011;7730;49.610;11.136;2022-12-29T07:58:59;3.53;;;1.60;;
15254;SDS011;7730;49.610;11.136;2022-12-29T08:01:26;4.00;;;1.60;;
15254;SDS011;7730;49.610;11.136;2022-12-29T08:03:53;7.67;;;2.13;;
15254;SDS011;7730;49.610;11.136;2022-12-29T08:06:20;3.63;;;1.75;;
15254;SDS011;7730;49.610;11.136;2022-12-29T08:08:47;3.55;;;1.80;;
15254;SDS011;7730;49.610;11.136;2022-12-29T08:11:15;3.55;;;1.88;;
15254;SDS011;7730;49.610;11.136;2022-12-29T08:13:42;2.45;;;1.60;;
15254;SDS011;7730;49.610;11.136;2022-12-29T08:16:09;3.95;;;1.80;;
15254;SDS011;7730;49.610;11.136;2022-12-29T08:18:36;4.25;;;1.92;;
15254;SDS011;7730;49.610;11.136;2022-12-29T08:21:03;5.05;;;1.83;;
15254;SDS011;7730;49.610;11.136;2022-12-29T08:23:30;3.78;;;1.90;;
15254;SDS011;7730;49.610;11.136;2022-12-29T08:25:58;4.22;;;1.67;;
15254;SDS011;7730;49.610;11.136;2022-12-29T08:28:26;4.05;;;1.63;;
15254;SDS011;7730;49.610;11.136;2022-12-29T08:30:54;5.30;;;1.70;;
15254;SDS011;7730;49.610;11.136;2022-12-29T08:33:23;4.65;;;2.00;;
15254;SDS011;7730;49.610;11.136;2022-12-29T08:35:50;4.87;;;1.97;;
15254;SDS011;7730;49.610;11.136;2022-12-29T08:38:17;3.67;;;2.00;;
15254;SDS011;7730;49.610;11.136;2022-12-29T08:40:44;4.63;;;1.75;;
15254;SDS011;7730;49.610;11.136;2022-12-29T08:43:11;6.80;;;2.07;;
15254;SDS011;7730;49.610;11.136;2022-12-29T08:45:39;4.67;;;1.97;;
15254;SDS011;7730;49.610;11.136;2022-12-29T08:48:07;3.83;;;1.80;;
15254;SDS011;7730;49.610;11.136;2022-12-29T08:50:34;5.53;;;2.10;;
15254;SDS011;7730;49.610;11.136;2022-12-29T08:53:01;3.50;;;1.77;;
15254;SDS011;7730;49.610;11.136;2022-12-29T08:55:28;4.57;;;1.90;;
15254;SDS011;7730;49.610;11.136;2022-12-29T08:57:55;4.75;;;1.90;;
15254;SDS011;7730;49.610;11.136;2022-12-29T09:00:22;5.07;;;1.90;;
15254;SDS011;7730;49.610;11.136;2022-12-29T09:02:50;3.40;;;1.75;;
15254;SDS011;7730;49.610;11.136;2022-12-29T09:05:17;4.75;;;1.95;;
15254;SDS011;7730;49.610;11.136;2022-12-29T09:07:44;4.93;;;1.80;;
15254;SDS011;7730;49.610;11.136;2022-12-29T09:10:11;3.67;;;1.90;;
15254;SDS011;7730;49.610;11.136;2022-12-29T09:12:38;3.25;;;1.48;;
15254;SDS011;7730;49.610;11.136;2022-12-29T09:15:06;3.40;;;1.85;;
15254;SDS011;7730;49.610;11.136;2022-12-29T09:17:33;2.67;;;1.45;;
15254;SDS011;7730;49.610;11.136;2022-12-29T09:20:11;3.88;;;1.75;;
15254;SDS011;7730;49.610;11.136;2022-12-29T09:22:39;4.35;;;1.70;;
15254;SDS011;7730;49.610;11.136;2022-12-29T09:25:06;4.65;;;1.70;;
15254;SDS011;7730;49.610;11.136;2022-12-29T09:27:34;4.50;;;2.10;;
15254;SDS011;7730;49.610;11.136;2022-12-29T09:30:01;4.15;;;1.75;;
15254;SDS011;7730;49.610;11.136;2022-12-29T09:32:28;5.43;;;1.88;;
15254;SDS011;7730;49.610;11.136;2022-12-29T09:34:55;4.38;;;1.98;;
15254;SDS011;7730;49.610;11.136;2022-12-29T09:37:23;5.50;;;1.90;;
15254;SDS011;7730;49.610;11.136;2022-12-29T09:39:50;5.07;;;1.80;;
15254;SDS011;7730;49.610;11.136;2022-12-29T09:42:18;5.70;;;1.70;;
15254;SDS011;7730;49.610;11.136;2022-12-29T09:44:48;4.75;;;1.83;;
15254;SDS011;7730;49.610;11.136;2022-12-29T09:47:18;3.03;;;1.70;;
15254;SDS011;7730;49.610;11.136;2022-12-29T09:49:47;3.65;;;1.70;;
15254;SDS011;7730;49.610;11.136;2022-12-29T09:52:19;7.00;;;1.80;;
15254;SDS011;7730;49.610;11.136;2022-12-29T09:54:51;2.83;;;1.70;;
15254;SDS011;7730;49.610;11.136;2022-12-29T09:57:20;6.57;;;2.00;;
15254;SDS011;7730;49.610;11.136;2022-12-29T09:59:49;3.30;;;1.73;;
15254;SDS011;7730;49.610;11.136;2022-12-29T10:02:23;3.45;;;1.73;;
15254;SDS011;7730;49.610;11.136;2022-12-29T10:04:53;4.00;;;1.60;;
15254;SDS011;7730;49.610;11.136;2022-12-29T10:07:23;4.38;;;1.58;;
15254;SDS011;7730;49.610;11.136;2022-12-29T10:09:58;4.30;;;1.88;;
15254;SDS011;7730;49.610;11.136;2022-12-29T10:12:30;3.90;;;1.80;;
15254;SDS011;7730;49.610;11.136;2022-12-29T10:15:03;4.25;;;2.00;;
15254;SDS011;7730;49.610;11.136;2022-12-29T10:17:34;3.85;;;1.70;;
15254;SDS011;7730;49.610;11.136;2022-12-29T10:20:11;6.00;;;2.10;;
15254;SDS011;7730;49.610;11.136;2022-12-29T10:22:44;3.75;;;1.83;;
15254;SDS011;7730;49.610;11.136;2022-12-29T10:25:18;5.35;;;2.00;;
15254;SDS011;7730;49.610;11.136;2022-12-29T10:27:47;5.80;;;1.77;;
15254;SDS011;7730;49.610;11.136;2022-12-29T10:30:14;4.60;;;1.85;;
15254;SDS011;7730;49.610;11.136;2022-12-29T10:32:43;4.70;;;1.70;;
15254;SDS011;7730;49.610;11.136;2022-12-29T10:35:14;4.72;;;1.90;;
15254;SDS011;7730;49.610;11.136;2022-12-29T10:37:42;3.73;;;1.80;;
15254;SDS011;7730;49.610;11.136;2022-12-29T10:40:12;4.43;;;1.70;;
15254;SDS011;7730;49.610;11.136;2022-12-29T10:42:42;3.90;;;1.88;;
15254;SDS011;7730;49.610;11.136;2022-12-29T10:45:12;6.15;;;2.30;;
15254;SDS011;7730;49.610;11.136;2022-12-29T10:47:42;4.90;;;2.13;;
15254;SDS011;7730;49.610;11.136;2022-12-29T10:50:12;6.97;;;1.83;;
15254;SDS011;7730;49.610;11.136;2022-12-29T10:52:39;7.82;;;2.00;;
15254;SDS011;7730;49.610;11.136;2022-12-29T10:55:08;3.65;;;1.85;;
15254;SDS011;7730;49.610;11.136;2022-12-29T10:57:38;2.97;;;1.70;;
15254;SDS011;7730;49.610;11.136;2022-12-29T11:00:10;4.25;;;1.60;;
15254;SDS011;7730;49.610;11.136;2022-12-29T11:02:43;4.82;;;1.90;;
15254;SDS011;7730;49.610;11.136;2022-12-29T11:05:15;6.90;;;1.90;;
15254;SDS011;7730;49.610;11.136;2022-12-29T11:07:46;4.00;;;1.80;;
15254;SDS011;7730;49.610;11.136;2022-12-29T11:10:18;4.38;;;1.92;;
15254;SDS011;7730;49.610;11.136;2022-12-29T11:12:54;5.50;;;1.80;;
15254;SDS011;7730;49.610;11.136;2022-12-29T11:15:22;9.30;;;2.15;;
15254;SDS011;7730;49.610;11.136;2022-12-29T11:17:50;3.50;;;1.73;;
15254;SDS011;7730;49.610;11.136;2022-12-29T11:20:27;6.15;;;2.03;;
15254;SDS011;7730;49.610;11.136;2022-12-29T11:22:55;5.15;;;1.83;;
15254;SDS011;7730;49.610;11.136;2022-12-29T11:25:22;6.97;;;2.25;;
15254;SDS011;7730;49.610;11.136;2022-12-29T11:27:54;4.65;;;1.90;;
15254;SDS011;7730;49.610;11.136;2022-12-29T11:30:23;4.13;;;1.80;;
15254;SDS011;7730;49.610;11.136;2022-12-29T11:32:51;5.32;;;1.90;;
15254;SDS011;7730;49.610;11.136;2022-12-29T11:35:29;4.53;;;1.80;;
15254;SDS011;7730;49.610;11.136;2022-12-29T11:37:57;5.90;;;2.10;;
15254;SDS011;7730;49.610;11.136;2022-12-29T11:40:25;4.37;;;2.03;;
15254;SDS011;7730;49.610;11.136;2022-12-29T11:42:53;5.90;;;2.00;;
15254;SDS011;7730;49.610;11.136;2022-12-29T11:45:23;4.25;;;1.95;;
15254;SDS011;7730;49.610;11.136;2022-12-29T11:47:52;5.75;;;2.00;;
15254;SDS011;7730;49.610;11.136;2022-12-29T11:50:20;4.27;;;1.97;;
15254;SDS011;7730;49.610;11.136;2022-12-29T11:52:48;3.60;;;1.95;;
15254;SDS011;7730;49.610;11.136;2022-12-29T11:55:17;4.10;;;1.80;;
15254;SDS011;7730;49.610;11.136;2022-12-29T11:57:44;3.75;;;2.20;;
15254;SDS011;7730;49.610;11.136;2022-12-29T12:00:15;9.35;;;2.95;;
15254;SDS011;7730;49.610;11.136;2022-12-29T12:02:45;5.25;;;2.20;;
15254;SDS011;7730;49.610;11.136;2022-12-29T12:05:15;5.63;;;2.00;;
15254;SDS011;7730;49.610;11.136;2022-12-29T12:07:45;6.07;;;2.63;;
15254;SDS011;7730;49.610;11.136;2022-12-29T12:10:16;5.75;;;2.10;;
15254;SDS011;7730;49.610;11.136;2022-12-29T12:12:46;3.55;;;1.92;;
15254;SDS011;7730;49.610;11.136;2022-12-29T12:15:15;5.73;;;2.23;;
15254;SDS011;7730;49.610;11.136;2022-12-29T12:17:49;5.90;;;2.20;;
15254;SDS011;7730;49.610;11.136;2022-12-29T12:20:18;6.18;;;2.50;;
15254;SDS011;7730;49.610;11.136;2022-12-29T12:22:48;5.90;;;2.33;;
15254;SDS011;7730;49.610;11.136;2022-12-29T12:25:18;5.13;;;2.20;;
15254;SDS011;7730;49.610;11.136;2022-12-29T12:27:48;5.27;;;2.30;;
15254;SDS011;7730;49.610;11.136;2022-12-29T12:30:18;5.25;;;2.35;;
15254;SDS011;7730;49.610;11.136;2022-12-29T12:32:48;8.95;;;3.00;;
15254;SDS011;7730;49.610;11.136;2022-12-29T12:35:19;8.00;;;2.80;;
15254;SDS011;7730;49.610;11.136;2022-12-29T12:38:04;5.07;;;2.40;;
15254;SDS011;7730;49.610;11.136;2022-12-29T12:43:36;5.32;;;2.20;;
15254;SDS011;7730;49.610;11.136;2022-12-29T12:46:07;6.65;;;2.30;;
15254;SDS011;7730;49.610;11.136;2022-12-29T12:48:41;5.10;;;2.20;;
15254;SDS011;7730;49.610;11.136;2022-12-29T12:51:12;6.75;;;2.47;;
15254;SDS011;7730;49.610;11.136;2022-12-29T12:53:49;4.60;;;2.00;;
15254;SDS011;7730;49.610;11.136;2022-12-29T12:56:24;5.53;;;2.00;;
15254;SDS011;7730;49.610;11.136;2022-12-29T12:58:55;5.00;;;2.10;;
15254;SDS011;7730;49.610;11.136;2022-12-29T13:01:30;5.85;;;2.00;;
15254;SDS011;7730;49.610;11.136;2022-12-29T13:04:08;6.43;;;2.22;;
15254;SDS011;7730;49.610;11.136;2022-12-29T13:06:41;5.15;;;2.00;;
15254;SDS011;7730;49.610;11.136;2022-12-29T13:09:19;4.65;;;2.15;;
15254;SDS011;7730;49.610;11.136;2022-12-29T13:11:53;3.90;;;2.03;;
15254;SDS011;7730;49.610;11.136;2022-12-29T13:14:25;4.15;;;2.00;;
15254;SDS011;7730;49.610;11.136;2022-12-29T13:16:53;5.00;;;2.00;;
15254;SDS011;7730;49.610;11.136;2022-12-29T13:19:27;6.53;;;2.40;;
15254;SDS011;7730;49.610;11.136;2022-12-29T13:22:00;5.25;;;2.20;;
15254;SDS011;7730;49.610;11.136;2022-12-29T13:24:29;4.82;;;2.20;;
15254;SDS011;7730;49.610;11.136;2022-12-29T13:27:00;6.82;;;3.13;;
15254;SDS011;7730;49.610;11.136;2022-12-29T13:29:31;6.13;;;2.30;;
15254;SDS011;7730;49.610;11.136;2022-12-29T13:32:02;6.07;;;2.55;;
15254;SDS011;7730;49.610;11.136;2022-12-29T13:34:37;5.00;;;2.28;;
15254;SDS011;7730;49.610;11.136;2022-12-29T13:37:07;8.65;;;3.20;;
15254;SDS011;7730;49.610;11.136;2022-12-29T13:39:37;9.20;;;3.38;;
15254;SDS011;7730;49.610;11.136;2022-12-29T13:42:05;8.52;;;3.10;;
15254;SDS011;7730;49.610;11.136;2022-12-29T13:44:33;8.05;;;3.00;;
15254;SDS011;7730;49.610;11.136;2022-12-29T13:47:01;10.63;;;4.20;;
15254;SDS011;7730;49.610;11.136;2022-12-29T13:49:29;12.27;;;4.63;;
15254;SDS011;7730;49.610;11.136;2022-12-29T13:51:58;16.88;;;8.90;;
15254;SDS011;7730;49.610;11.136;2022-12-29T13:54:33;18.90;;;12.30;;
15254;SDS011;7730;49.610;11.136;2022-12-29T13:57:05;14.82;;;7.72;;
15254;SDS011;7730;49.610;11.136;2022-12-29T13:59:36;16.73;;;9.93;;
15254;SDS011;7730;49.610;11.136;2022-12-29T14:02:08;13.65;;;7.30;;
15254;SDS011;7730;49.610;11.136;2022-12-29T14:04:40;6.63;;;2.90;;
15254;SDS011;7730;49.610;11.136;2022-12-29T14:07:22;6.13;;;2.95;;
15254;SDS011;7730;49.610;11.136;2022-12-29T14:09:50;9.93;;;4.03;;
15254;SDS011;7730;49.610;11.136;2022-12-29T14:15:06;21.90;;;12.95;;
15254;SDS011;7730;49.610;11.136;2022-12-29T14:17:40;15.70;;;7.32;;
15254;SDS011;7730;49.610;11.136;2022-12-29T14:20:16;6.93;;;2.78;;
15254;SDS011;7730;49.610;11.136;2022-12-29T14:22:55;8.32;;;2.83;;
15254;SDS011;7730;49.610;11.136;2022-12-29T14:28:14;9.15;;;3.80;;
15254;SDS011;7730;49.610;11.136;2022-12-29T14:30:52;11.73;;;4.78;;
15254;SDS011;7730;49.610;11.136;2022-12-29T14:33:19;11.77;;;4.70;;
15254;SDS011;7730;49.610;11.136;2022-12-29T14:35:47;9.18;;;3.67;;
15254;SDS011;7730;49.610;11.136;2022-12-29T14:41:16;11.70;;;3.80;;
15254;SDS011;7730;49.610;11.136;2022-12-29T14:43:51;10.65;;;3.58;;
15254;SDS011;7730;49.610;11.136;2022-12-29T14:46:20;11.27;;;3.90;;
15254;SDS011;7730;49.610;11.136;2022-12-29T14:48:47;11.25;;;3.90;;
15254;SDS011;7730;49.610;11.136;2022-12-29T14:51:18;17.70;;;7.28;;
15254;SDS011;7730;49.610;11.136;2022-12-29T14:53:46;17.15;;;7.32;;
15254;SDS011;7730;49.610;11.136;2022-12-29T14:56:14;16.02;;;6.80;;
15254;SDS011;7730;49.610;11.136;2022-12-29T14:58:46;17.30;;;7.22;;
15254;SDS011;7730;49.610;11.136;2022-12-29T15:01:18;15.82;;;6.25;;
15254;SDS011;7730;49.610;11.136;2022-12-29T15:03:45;15.82;;;6.65;;
15254;SDS011;7730;49.610;11.136;2022-12-29T15:06:16;15.77;;;6.20;;
15254;SDS011;7730;49.610;11.136;2022-12-29T15:08:48;13.75;;;5.63;;
15254;SDS011;7730;49.610;11.136;2022-12-29T15:11:17;14.85;;;6.13;;
15254;SDS011;7730;49.610;11.136;2022-12-29T15:13:46;14.15;;;5.80;;
15254;SDS011;7730;49.610;11.136;2022-12-29T15:16:23;15.68;;;6.28;;
15254;SDS011;7730;49.610;11.136;2022-12-29T15:18:51;14.63;;;5.78;;